createdAt,value
2023-06-10T00:00:14.309Z,98559.52
2023-06-10T00:05:17.430Z,98556.95
2023-06-10T00:10:19.165Z,98554.70
2023-06-10T00:15:20.981Z,98552.46
2023-06-10T00:20:26.182Z,98559.20
2023-06-10T00:25:28.051Z,98561.48
2023-06-10T00:30:30.097Z,98560.19
2023-06-10T00:35:31.816Z,98562.43
2023-06-10T00:40:42.051Z,98564.31
2023-06-10T00:45:43.861Z,98567.56
2023-06-10T00:50:47.888Z,98570.77
2023-06-10T00:55:49.707Z,98574.05
2023-06-10T01:00:51.864Z,98582.46
2023-06-10T01:06:15.485Z,98582.41
2023-06-10T01:11:31.088Z,98580.90
2023-06-10T01:16:33.737Z,98582.63
2023-06-10T01:21:36.585Z,98587.96
2023-06-10T01:26:38.526Z,98585.54
2023-06-10T01:31:50.405Z,98585.83
2023-06-10T01:36:56.030Z,98581.90
2023-06-10T01:41:58.351Z,98583.38
2023-06-10T01:47:00.153Z,98584.25
2023-06-10T01:52:03.133Z,98588.88
2023-06-10T01:57:07.282Z,98592.29
2023-06-10T02:02:09.003Z,98594.05
2023-06-10T02:07:11.046Z,98594.38
2023-06-10T02:12:12.809Z,98592.88
2023-06-10T02:17:15.833Z,98599.39
2023-06-10T02:22:17.524Z,98595.91
2023-06-10T02:27:19.707Z,98600.86
2023-06-10T02:32:21.523Z,98603.06
2023-06-10T02:37:23.555Z,98600.48
2023-06-10T02:42:25.348Z,98597.75
2023-06-10T02:47:27.500Z,98599.23
2023-06-10T02:52:29.884Z,98601.88
2023-06-10T02:57:32.015Z,98608.14
2023-06-10T03:02:37.989Z,98611.88
2023-06-10T03:07:40.430Z,98610.63
2023-06-10T03:12:42.562Z,98605.75
2023-06-10T03:17:44.632Z,98602.95
2023-06-10T03:22:46.996Z,98611.20
2023-06-10T03:27:49.003Z,98616.79
2023-06-10T03:32:51.038Z,98618.39
2023-06-10T03:37:54.452Z,98617.67
2023-06-10T03:42:56.380Z,98621.70
2023-06-10T03:47:58.495Z,98625.23
2023-06-10T03:53:04.764Z,98628.55
2023-06-10T03:58:06.912Z,98628.61
2023-06-10T04:03:10.693Z,98628.11
2023-06-10T04:08:16.338Z,98621.69
2023-06-10T04:13:18.597Z,98624.23
2023-06-10T04:18:26.319Z,98624.33
2023-06-10T04:23:30.278Z,98628.61
2023-06-10T04:28:32.366Z,98633.74
2023-06-10T04:33:34.324Z,98630.83
2023-06-10T04:38:37.024Z,98630.20
2023-06-10T04:43:39.751Z,98634.85
2023-06-10T04:48:43.451Z,98638.35
2023-06-10T04:53:46.189Z,98639.45
2023-06-10T04:58:47.963Z,98638.55
2023-06-10T05:03:49.945Z,98635.92
2023-06-10T05:08:51.804Z,98634.95
2023-06-10T05:13:53.518Z,98634.38
2023-06-10T05:18:55.228Z,98634.86
2023-06-10T05:23:57.185Z,98643.52
2023-06-10T05:28:59.715Z,98644.58
2023-06-10T05:34:01.395Z,98644.56
2023-06-10T05:39:04.061Z,98651.02
2023-06-10T05:44:05.827Z,98654.40
2023-06-10T05:49:07.614Z,98655.23
2023-06-10T05:54:09.309Z,98661.05
2023-06-10T05:59:11.030Z,98662.07
2023-06-10T06:04:12.866Z,98664.54
2023-06-10T06:09:14.912Z,98672.19
2023-06-10T06:14:24.639Z,98672.76
2023-06-10T06:19:26.482Z,98657.60
2023-06-10T06:24:28.640Z,98671.45
2023-06-10T06:29:31.246Z,98674.29
2023-06-10T06:34:34.624Z,98688.80
2023-06-10T06:39:36.334Z,98694.33
2023-06-10T06:44:38.070Z,98694.20
2023-06-10T06:49:39.813Z,98706.59
2023-06-10T06:54:41.608Z,98710.14
2023-06-10T06:59:43.303Z,98712.63
2023-06-10T07:04:45.271Z,98715.48
2023-06-10T07:09:51.755Z,98715.54
2023-06-10T07:14:53.550Z,98724.68
2023-06-10T07:19:58.506Z,98723.10
2023-06-10T07:25:00.266Z,98727.04
2023-06-10T07:30:02.661Z,98724.23
2023-06-10T07:35:07.024Z,98734.85
2023-06-10T07:40:09.766Z,98734.94
2023-06-10T07:45:11.971Z,98743.15
2023-06-10T07:50:13.938Z,98749.80
2023-06-10T07:55:15.696Z,98748.30
2023-06-10T08:00:18.118Z,98753.53
2023-06-10T08:05:20.251Z,98758.08
2023-06-10T08:10:22.087Z,98757.66
2023-06-10T08:15:23.829Z,98768.36
2023-06-10T08:20:26.021Z,98765.64
2023-06-10T08:25:28.596Z,98762.48
2023-06-10T08:30:30.295Z,98767.50
2023-06-10T08:35:32.052Z,98765.14
2023-06-10T08:40:34.430Z,98770.08
2023-06-10T08:45:37.969Z,98774.64
2023-06-10T08:50:40.759Z,98777.03
2023-06-10T08:55:51.021Z,98773.47
2023-06-10T09:00:53.728Z,98775.92
2023-06-10T09:05:58.147Z,98773.44
2023-06-10T09:11:00.021Z,98772.61
2023-06-10T09:16:03.249Z,98768.34
2023-06-10T09:21:05.491Z,98774.55
2023-06-10T09:26:11.708Z,98776.33
2023-06-10T09:31:13.556Z,98775.27
2023-06-10T09:36:24.900Z,98772.61
2023-06-10T09:41:40.348Z,98774.48
2023-06-10T09:46:43.212Z,98773.56
2023-06-10T09:51:56.148Z,98771.29
2023-06-10T09:56:59.871Z,98768.05
2023-06-10T10:02:02.094Z,98776.39
2023-06-10T10:07:03.988Z,98769.83
2023-06-10T10:12:12.341Z,98772.17
2023-06-10T10:17:16.118Z,98762.89
2023-06-10T10:22:38.423Z,98768.17
2023-06-10T10:27:49.500Z,98765.43
2023-06-10T10:33:13.646Z,98759.96
2023-06-10T10:38:16.196Z,98751.86
2023-06-10T10:43:19.200Z,98750.77
2023-06-10T10:48:21.048Z,98744.93
2023-06-10T10:53:22.962Z,98737.11
2023-06-10T10:58:27.774Z,98731.40
2023-06-10T11:03:31.970Z,98732.45
2023-06-10T11:08:33.929Z,98726.70
2023-06-10T11:13:39.680Z,98726.16
2023-06-10T11:18:42.650Z,98732.06
2023-06-10T11:23:45.183Z,98726.31
2023-06-10T11:28:47.423Z,98725.24
2023-06-10T11:33:54.604Z,98729.59
2023-06-10T11:39:05.418Z,98727.17
2023-06-10T11:44:18.307Z,98726.70
2023-06-10T11:49:21.747Z,98723.09
2023-06-10T11:54:23.481Z,98705.13
2023-06-10T11:59:28.880Z,98702.82
2023-06-10T12:04:30.743Z,98706.67
2023-06-10T12:09:34.200Z,98698.46
2023-06-10T12:14:56.063Z,98704.48
2023-06-10T12:19:58.621Z,98701.79
2023-06-10T12:25:05.785Z,98700.08
2023-06-10T12:30:08.130Z,98698.91
2023-06-10T12:35:12.425Z,98706.11
2023-06-10T12:40:14.494Z,98697.30
2023-06-10T12:45:27.497Z,98685.19
2023-06-10T12:50:29.473Z,98694.50
2023-06-10T12:55:31.376Z,98698.71
2023-06-10T13:00:33.311Z,98703.50
2023-06-10T13:05:38.321Z,98696.95
2023-06-10T13:10:40.142Z,98685.82
2023-06-10T13:15:44.027Z,98682.89
2023-06-10T13:20:56.044Z,98673.11
2023-06-10T13:26:30.502Z,98678.90
2023-06-10T13:31:33.758Z,98670.87
2023-06-10T13:36:36.054Z,98675.23
2023-06-10T13:41:37.766Z,98681.67
2023-06-10T13:46:39.533Z,98671.17
2023-06-10T13:51:41.483Z,98674.65
2023-06-10T13:56:43.242Z,98672.96
2023-06-10T14:01:45.040Z,98680.31
2023-06-10T14:06:46.914Z,98673.98
2023-06-10T14:11:48.752Z,98663.67
2023-06-10T14:16:51.014Z,98653.80
2023-06-10T14:21:54.874Z,98650.83
2023-06-10T14:26:58.192Z,98644.91
2023-06-10T14:32:00.703Z,98649.73
2023-06-10T14:37:05.286Z,98663.22
2023-06-10T14:42:08.004Z,98685.00
2023-06-10T14:47:09.686Z,98693.77
2023-06-10T14:52:11.483Z,98698.33
2023-06-10T14:57:13.169Z,98716.64
2023-06-10T15:02:14.969Z,98724.09
2023-06-10T15:07:16.735Z,98730.23
2023-06-10T15:12:18.431Z,98732.71
2023-06-10T15:17:20.094Z,98743.41
2023-06-10T15:22:22.299Z,98748.10
2023-06-10T15:27:24.097Z,98742.16
2023-06-10T15:32:25.809Z,98736.95
2023-06-10T15:37:27.571Z,98739.86
2023-06-10T15:42:29.390Z,98744.36
2023-06-10T15:47:31.405Z,98753.19
2023-06-10T15:52:33.488Z,98751.23
2023-06-10T15:57:35.354Z,98751.52
2023-06-10T16:02:37.651Z,98741.16
2023-06-10T16:07:41.378Z,98734.43
2023-06-10T16:12:43.157Z,98706.06
2023-06-10T16:17:45.065Z,98722.31
2023-06-10T16:22:46.862Z,98727.21
2023-06-10T16:27:48.623Z,98724.44
2023-06-10T16:32:50.539Z,98730.94
2023-06-10T16:37:52.766Z,98741.59
2023-06-10T16:42:54.448Z,98745.78
2023-06-10T16:47:57.156Z,98765.58
2023-06-10T16:52:59.365Z,98773.63
2023-06-10T16:58:01.066Z,98783.81
2023-06-10T17:03:02.887Z,98790.56
2023-06-10T17:08:04.964Z,98801.64
2023-06-10T17:13:06.780Z,98803.64
2023-06-10T17:18:08.730Z,98805.63
2023-06-10T17:23:11.223Z,98801.60
2023-06-10T17:28:13.248Z,98806.09
2023-06-10T17:33:15.052Z,98802.66
2023-06-10T17:38:17.877Z,98802.03
2023-06-10T17:43:21.563Z,98808.55
2023-06-10T17:48:23.293Z,98809.88
2023-06-10T17:53:25.004Z,98812.69
2023-06-10T17:58:26.756Z,98815.23
2023-06-10T18:03:28.913Z,98821.97
2023-06-10T18:08:31.058Z,98825.05
2023-06-10T18:13:33.643Z,98826.30
2023-06-10T18:18:35.384Z,98827.42
2023-06-10T18:23:37.222Z,98830.56
2023-06-10T18:28:39.117Z,98837.91
2023-06-10T18:33:40.989Z,98845.29
2023-06-10T18:38:42.761Z,98846.10
2023-06-10T18:43:44.482Z,98850.33
2023-06-10T18:48:48.727Z,98852.48
2023-06-10T18:53:50.695Z,98855.39
2023-06-10T18:58:52.383Z,98864.02
2023-06-10T19:03:54.233Z,98873.39
2023-06-10T19:08:56.347Z,98881.00
2023-06-10T19:13:58.106Z,98888.15
2023-06-10T19:18:59.869Z,98895.23
2023-06-10T19:24:01.716Z,98891.33
2023-06-10T19:29:03.498Z,98893.39
2023-06-10T19:34:05.296Z,98897.38
2023-06-10T19:39:07.754Z,98894.14
2023-06-10T19:44:09.503Z,98898.85
2023-06-10T19:49:11.331Z,98902.95
2023-06-10T19:54:13.249Z,98903.94
2023-06-10T19:59:14.975Z,98910.37
2023-06-10T20:04:16.916Z,98919.98
2023-06-10T20:09:18.758Z,98924.27
2023-06-10T20:14:21.972Z,98918.63
2023-06-10T20:19:23.708Z,98918.40
2023-06-10T20:24:25.646Z,98911.68
2023-06-10T20:29:27.616Z,98915.44
2023-06-10T20:34:29.329Z,98915.84
2023-06-10T20:39:31.188Z,98921.60
2023-06-10T20:44:32.872Z,98922.70
2023-06-10T20:49:34.607Z,98920.96
2023-06-10T20:54:36.496Z,98916.33
2023-06-10T20:59:38.257Z,98926.77
2023-06-10T21:04:39.954Z,98927.66
2023-06-10T21:09:41.784Z,98928.59
2023-06-10T21:14:49.526Z,98937.08
2023-06-10T21:19:51.629Z,98940.12
2023-06-10T21:24:53.504Z,98934.90
2023-06-10T21:29:55.230Z,98936.27
2023-06-10T21:34:57.498Z,98936.41
2023-06-10T21:39:59.384Z,98940.00
2023-06-10T21:45:01.089Z,98940.77
2023-06-10T21:50:04.353Z,98940.20
2023-06-10T21:55:09.388Z,98941.21
2023-06-10T22:00:15.061Z,98946.17
2023-06-10T22:05:32.864Z,98943.88
2023-06-10T22:10:34.669Z,98942.14
2023-06-10T22:15:37.143Z,98943.54
2023-06-10T22:20:38.864Z,98940.84
2023-06-10T22:25:41.311Z,98932.09
2023-06-10T22:30:43.237Z,98930.39
2023-06-10T22:35:45.900Z,98935.35
2023-06-10T22:40:47.586Z,98933.58
2023-06-10T22:45:49.474Z,98929.70
2023-06-10T22:50:51.329Z,98924.80
2023-06-10T22:55:53.021Z,98929.70
2023-06-10T23:00:54.802Z,98934.08
2023-06-10T23:05:56.525Z,98935.16
2023-06-10T23:10:58.215Z,98937.98
2023-06-10T23:16:03.950Z,98936.30
2023-06-10T23:21:06.090Z,98933.07
2023-06-10T23:26:07.788Z,98935.17
2023-06-10T23:31:09.469Z,98937.98
2023-06-10T23:36:14.024Z,98937.51
2023-06-10T23:41:15.799Z,98939.23
2023-06-10T23:46:18.534Z,98937.91
2023-06-10T23:51:21.190Z,98945.00
2023-06-10T23:56:24.640Z,98943.98
